• Join FlightAware (Why Join?)
  • Login
  • US Flag 
06:20PM EDT


 

Airport Tracker/Info


-or-


 

Live Flight TrackerFlight Track Log ✈ EJA583 ✈ 18-Jul-2013 ✈ KMKE - KWST

Flight Track Log - Related Links

Times and Time Zones

All times are in EDT time to prevent confusion due to time zone crossing. See the EJA583 flight status page for this flight to view local times or setup timezone preferences in your user account.

Time Position Orientation Groundspeed Altitude Reporting Facility
EDT Latitude Longitude Course Direction KTS MPH feet Rate Location/Type
05:38PM 42.9333 -87.9000 161° South 159 183 1,700  Level KMKE
05:39PM 42.8694 -87.8694 161° South 215 247 4,400 1,560 Climbing Chicago Center
05:40PM 42.8569 -87.7781 101° East 271 312 5,400 1,740 Climbing Chicago Center
05:41PM 42.8944 -87.6625 66° East 289 333 8,000 2,220 Climbing Chicago Center
05:42PM 42.9089 -87.5564 79° East 286 329 10,000 1,800 Climbing Chicago Center
05:44PM 42.9167 -87.4392 85° East 308 354 11,800 1,920 Climbing Chicago Center
05:45PM 42.9194 -87.3158 88° East 336 387 14,000 2,100 Climbing Chicago Center
05:46PM 42.9236 -87.1844 87° East 348 400 16,200 2,280 Climbing Chicago Center
05:47PM 42.9275 -87.0261 88° East 350 403 18,800 2,160 Climbing Chicago Center
05:48PM 42.9306 -86.8908 88° East 356 410 20,700 1,800 Climbing Chicago Center
05:49PM 42.9350 -86.7517 87° East 366 421 22,600 1,740 Climbing Chicago Center
05:50PM 42.9381 -86.6089 88° East 370 426 24,300 1,320 Climbing Chicago Center
05:51PM 42.9411 -86.4647 88° East 385 443 25,400 1,140 Climbing Chicago Center
05:52PM 42.9442 -86.3136 88° East 397 457 26,700 1,440 Climbing Chicago Center
05:53PM 42.9464 -86.1347 89° East 397 457 28,400 1,440 Climbing Chicago Center
05:54PM 42.9475 -85.9861 89° East 403 464 29,700 1,200 Climbing Chicago Center
05:55PM 42.9511 -85.8386 88° East 402 463 31,000 1,200 Climbing Chicago Center
05:56PM 42.9542 -85.6919 88° East 395 455 32,300 1,440 Climbing Chicago Center
05:57PM 42.9572 -85.5156 89° East 392 451 34,000 1,500 Climbing Chicago Center
05:58PM 42.9639 -85.3700 86° East 388 447 35,400 1,200 Climbing Chicago Center
05:59PM 43.0019 -85.2311 69° East 387 445 36,500 1,020 Climbing Chicago Center
06:00PM 43.0350 -85.0914 72° East 389 448 37,600 960 Climbing Chicago Center
06:01PM 43.0636 -84.9444 75° East 397 457 38,500 660 Climbing Chicago Center
06:02PM 43.0994 -84.7644 75° East 406 467 39,000 240 Climbing Chicago Center
06:03PM 43.1317 -84.6061 74° East 426 490 39,000  Level Chicago Center
06:04PM 43.1633 -84.4442 75° East 437 503 39,000  Level Chicago Center
06:05PM 43.1947 -84.2889 74° East 430 495 39,000  Level Chicago Center
06:06PM 43.2278 -84.1392 73° East 417 480 39,000  Level Chicago Center
06:07PM 43.2628 -83.9900 72° East 412 474 39,000  Level Chicago Center
06:09PM 43.3106 -83.7644 74° East 404 465 39,000  Level Cleveland Center
06:10PM 43.2981 -83.6042 96° East 406 467 39,000  Level Cleveland Center
06:11PM 43.2689 -83.4431 104° East 411 473 39,000  Level Cleveland Center
06:12PM 43.2433 -83.2850 102° East 417 480 39,000  Level Cleveland Center
06:13PM 43.2158 -83.1269 103° East 417 480 39,000  Level Cleveland Center
06:14PM 43.1900 -82.9667 102° East 423 487 39,000  Level Cleveland Center
06:15PM 43.1500 -82.7833 107° East 430 495 39,000  Level Toronto Center
06:16PM 43.1333 -82.6333 99° East 420 483 39,000  Level Toronto Center
06:17PM 43.1072 -82.4942 104° East 418 481 39,000  Level Cleveland Center
06:18PM 43.0667 -82.3000 106° East 420 483 39,000  Level Toronto Center
06:19PM 43.0333 -82.1667 109° East 420 483 39,000  Level Toronto Center
06:20PM 43.0000 -82.0000 105° East 420 483 39,000  Level Toronto Center
06:21PM 42.9833 -81.8500 99° East 420 483 39,000  Level Toronto Center
06:22PM 42.9500 -81.7000 107° East 420 483 39,000  Level Toronto Center
06:23PM 42.9167 -81.5167 104° East 430 495 39,000  Level Toronto Center
06:24PM 42.9000 -81.3833 100° East 430 495 39,000  Level Toronto Center
06:25PM 42.8667 -81.2333 107° East 430 495 39,000  Level Toronto Center
06:26PM 42.8333 -81.0667 105° East 430 495 39,000  Level Toronto Center
06:27PM 42.8000 -80.9000 105° East 430 495 39,000  Level Toronto Center
06:28PM 42.7833 -80.7500 99° East 430 495 39,000  Level Toronto Center
06:29PM 42.7500 -80.5833 105° East 430 495 39,000  Level Toronto Center
06:30PM 42.7333 -80.4333 99° East 430 495 39,000  Level Toronto Center
06:31PM 42.7333 -80.2667 90° East 430 495 39,000  Level Toronto Center
06:32PM 42.7167 -80.1167 99° East 430 495 39,000  Level Toronto Center
06:33PM 42.7167 -79.9500 90° East 430 495 39,000  Level Toronto Center
06:34PM 42.7000 -79.8000 99° East 430 495 39,000  Level Toronto Center
06:35PM 42.7000 -79.6333 90° East 430 495 39,000  Level Toronto Center
06:36PM 42.6833 -79.4500 97° East 430 495 39,000  Level Toronto Center
06:37PM 42.6833 -79.3167 90° East 420 483 39,000  Level Toronto Center
06:38PM 42.6667 -79.1333 97° East 420 483 39,000  Level Toronto Center
06:39PM 42.6667 -79.0000 90° East 420 483 39,000  Level Toronto Center
06:40PM 42.6500 -78.8167 97° East 420 483 39,000  Level Toronto Center
06:41PM 42.6500 -78.6667 90° East 420 483 39,000  Level Toronto Center
06:42PM 42.6419 -78.5283 94° East 420 483 39,000  Level Cleveland Center
06:43PM 42.6308 -78.3678 95° East 420 483 39,000  Level Cleveland Center
06:44PM 42.6214 -78.2103 95° East 420 483 39,000  Level Cleveland Center
06:45PM 42.6097 -78.0497 96° East 420 483 39,000  Level Cleveland Center
06:46PM 42.5978 -77.8922 96° East 420 483 39,000  Level Cleveland Center
06:47PM 42.5914 -77.7150 93° East 427 491 39,000  Level Cleveland Center
06:48PM 42.5769 -77.5547 97° East 427 491 39,000  Level Cleveland Center
06:49PM 42.5639 -77.3892 96° East 427 491 39,000  Level Cleveland Center
06:50PM 42.5533 -77.2344 95° East 427 491 39,000  Level Cleveland Center
06:52PM 42.5167 -76.9000 98° East 430 495 39,000  Level Toronto Center
06:53PM 42.5167 -76.7333 90° East 420 483 39,000  Level Toronto Center
06:53PM 42.5156 -76.7250 100° East 428 493 39,000  Level Boston Center
06:54PM 42.5017 -76.5325 96° East 428 493 39,000  Level Boston Center
06:55PM 42.4906 -76.3742 95° East 428 493 39,000  Level Boston Center
06:56PM 42.4814 -76.2186 95° East 423 487 39,000  Level Boston Center
06:57PM 42.4719 -76.0575 94° East 423 487 39,000  Level Boston Center
06:58PM 42.4608 -75.8767 95° East 433 498 39,000  Level Boston Center
07:00PM 42.4500 -75.6847 94° East 438 504 39,000  Level Boston Center
07:01PM 42.4406 -75.4928 94° East 433 498 39,000  Level Boston Center
07:02PM 42.4283 -75.3289 96° East 433 498 39,000  Level Boston Center
07:03PM 42.4178 -75.1597 95° East 433 498 39,000 -600 Level Boston Center
07:04PM 42.4069 -74.9989 95° East 433 498 37,900 -1,920 Descending Boston Center
07:05PM 42.4078 -74.8667 89° East 433 498 35,200 -3,120 Descending Boston Center
07:06PM 42.4222 -74.6678 84° East 433 498 31,700 -2,640 Descending Boston Center
07:07PM 42.4289 -74.5356 86° East 440 506 30,000 -1,440 Descending Boston Center
07:08PM 42.4386 -74.3364 86° East 440 506 28,900 -1,020 Descending Boston Center
07:09PM 42.4478 -74.1678 86° East 440 506 28,000 -960 Descending Boston Center
07:10PM 42.4586 -73.9936 85° East 440 506 27,000 -540 Descending Boston Center
07:11PM 42.4692 -73.8250 85° East 446 513 27,000 -900 Level Boston Center
07:12PM 42.4814 -73.6619 84° East 446 513 25,300 -2,280 Descending Boston Center
07:13PM 42.4872 -73.4931 87° East 441 507 22,500 -2,640 Descending Boston Center
07:14PM 42.4492 -73.3208 107° East 442 509 20,100 -1,260 Descending Boston Center
07:15PM 42.3997 -73.2133 122° Southeast 442 509 20,000 -540 Descending Boston Center
07:16PM 42.2733 -73.1386 156° South 395 455 19,100 -540 Descending Boston Center
07:17PM 42.1906 -73.0258 135° Southeast 407 468 19,000 -60 Descending Boston Center
07:18PM 42.1139 -72.9242 135° Southeast 423 487 19,000 -300 Level Boston Center
07:19PM 42.0247 -72.8061 135° Southeast 423 487 18,400 -1,560 Descending Boston Center
07:20PM 41.9519 -72.7081 135° Southeast 416 479 15,900 -2,520 Descending Boston Center
07:20PM 41.9000 -72.6547 143° Southeast 404 465 14,600 -1,860 Descending Boston Center
07:21PM 41.8083 -72.5569 142° Southeast 383 441 12,900 -1,560 Descending Boston Center
07:23PM 41.7169 -72.4594 141° Southeast 357 411 11,100 -1,560 Descending Boston Center
07:24PM 41.6397 -72.3761 141° Southeast 322 371 9,400 -1,680 Descending Boston Center
07:25PM 41.5814 -72.2958 134° Southeast 298 343 7,600 -1,920 Descending Boston Center
07:26PM 41.5436 -72.1822 114° Southeast 286 329 5,400 -1,380 Descending Boston Center
07:27PM 41.5119 -72.0881 114° Southeast 280 322 4,800 -900 Descending Boston Center
07:28PM 41.4806 -71.9911 113° Southeast 256 295 3,600 -900 Descending Boston Center
07:29PM 41.4531 -71.9056 113° Southeast 249 287 3,000 -600 Descending Boston Center
07:30PM 41.4297 -71.8256 111° Southeast 199 229 2,500 -780 Descending Boston Center
07:31PM 41.4022 -71.7619 120° Southeast 174 200 1,500 -780 Descending Boston Center
07:32PM 41.3750 -71.7622 180° South 119 137 900 -660 Descending Boston Center
07:33PM 41.3525 -71.7958 228° Southwest 99 114 200 9,000 Descending Boston Center
07:34PM 41.3169 -71.7794 161° South 110 127 19,000 9,060 Climbing Boston Center
07:35PM 41.2856 -71.7881 192° South 110 127 19,000  Level Boston Center
07:37PM 41.3496 -71.8034 249° West  Level Estimated
07:44PM 41.3496 -71.8034 90° East  Level Estimated
07:45PM 41.3496 -71.8034 90° East  Level Estimated
07:46PM 41.3496 -71.8034 90° East  Level Estimated
07:47PM 41.3496 -71.8034 90° East  Level Estimated